Terminal Aerodrome Forecast
Issued by NWS Wakefield, VA

Home | Current Version | Previous Version | Text Only | Print | Product List | Glossary On
Versions: 1 2 3 4 5 6 7 8 9 10 11 12 13 14 15 16 17 18 19 20 21 22 23 24 25
000
FTUS41 KAKQ 230500
TAFORF
TAF
KORF 230536Z 2306/2406 VRB04KT P6SM SCT009 SCT120
     FM231000 VRB04KT P6SM BKN005 BKN120
     FM231400 VRB06KT P6SM SCT020 BKN100
     FM231900 20008KT P6SM VCSH BKN040 BKN200=

USA.gov is the U.S. government's official web portal to all federal, state and local government web resources and services.